sensor_id;sensor_type;location;lat;lon;timestamp;P1;durP1;ratioP1;P2;durP2;ratioP2
16029;SDS011;34770;49.272;11.070;2022-07-23T00:00:01;13.05;;;8.85;;
16029;SDS011;34770;49.272;11.070;2022-07-23T00:02:26;12.63;;;8.65;;
16029;SDS011;34770;49.272;11.070;2022-07-23T00:04:52;10.05;;;9.07;;
16029;SDS011;34770;49.272;11.070;2022-07-23T00:07:17;9.57;;;8.68;;
16029;SDS011;34770;49.272;11.070;2022-07-23T00:09:42;11.07;;;9.45;;
16029;SDS011;34770;49.272;11.070;2022-07-23T00:12:08;18.42;;;10.20;;
16029;SDS011;34770;49.272;11.070;2022-07-23T00:14:33;11.13;;;8.80;;
16029;SDS011;34770;49.272;11.070;2022-07-23T00:16:59;12.75;;;9.55;;
16029;SDS011;34770;49.272;11.070;2022-07-23T00:19:24;11.63;;;9.40;;
16029;SDS011;34770;49.272;11.070;2022-07-23T00:21:49;10.57;;;8.65;;
16029;SDS011;34770;49.272;11.070;2022-07-23T00:24:15;12.23;;;8.30;;
16029;SDS011;34770;49.272;11.070;2022-07-23T00:26:40;11.43;;;8.95;;
16029;SDS011;34770;49.272;11.070;2022-07-23T00:29:06;10.98;;;9.35;;
16029;SDS011;34770;49.272;11.070;2022-07-23T00:31:31;11.73;;;9.38;;
16029;SDS011;34770;49.272;11.070;2022-07-23T00:33:56;11.90;;;8.95;;
16029;SDS011;34770;49.272;11.070;2022-07-23T00:36:22;10.65;;;9.57;;
16029;SDS011;34770;49.272;11.070;2022-07-23T00:38:48;14.55;;;9.93;;
16029;SDS011;34770;49.272;11.070;2022-07-23T00:41:14;11.38;;;8.90;;
16029;SDS011;34770;49.272;11.070;2022-07-23T00:43:40;10.43;;;8.73;;
16029;SDS011;34770;49.272;11.070;2022-07-23T00:46:05;10.65;;;9.57;;
16029;SDS011;34770;49.272;11.070;2022-07-23T00:48:31;10.73;;;9.25;;
16029;SDS011;34770;49.272;11.070;2022-07-23T00:50:56;12.23;;;9.55;;
16029;SDS011;34770;49.272;11.070;2022-07-23T00:53:21;9.90;;;8.88;;
16029;SDS011;34770;49.272;11.070;2022-07-23T00:55:48;10.68;;;8.75;;
16029;SDS011;34770;49.272;11.070;2022-07-23T00:58:14;10.48;;;8.45;;
16029;SDS011;34770;49.272;11.070;2022-07-23T01:00:41;10.68;;;9.63;;
16029;SDS011;34770;49.272;11.070;2022-07-23T01:03:06;10.75;;;9.63;;
16029;SDS011;34770;49.272;11.070;2022-07-23T01:05:32;13.40;;;10.95;;
16029;SDS011;34770;49.272;11.070;2022-07-23T01:07:58;10.88;;;9.63;;
16029;SDS011;34770;49.272;11.070;2022-07-23T01:10:23;14.77;;;10.27;;
16029;SDS011;34770;49.272;11.070;2022-07-23T01:13:03;15.23;;;10.15;;
16029;SDS011;34770;49.272;11.070;2022-07-23T01:15:30;13.95;;;10.55;;
16029;SDS011;34770;49.272;11.070;2022-07-23T01:17:56;13.60;;;9.75;;
16029;SDS011;34770;49.272;11.070;2022-07-23T01:20:22;12.30;;;10.98;;
16029;SDS011;34770;49.272;11.070;2022-07-23T01:22:48;12.35;;;10.90;;
16029;SDS011;34770;49.272;11.070;2022-07-23T01:25:14;10.75;;;9.35;;
16029;SDS011;34770;49.272;11.070;2022-07-23T01:27:39;13.10;;;10.07;;
16029;SDS011;34770;49.272;11.070;2022-07-23T01:30:05;10.68;;;9.65;;
16029;SDS011;34770;49.272;11.070;2022-07-23T01:32:31;11.95;;;9.57;;
16029;SDS011;34770;49.272;11.070;2022-07-23T01:34:56;12.63;;;10.65;;
16029;SDS011;34770;49.272;11.070;2022-07-23T01:37:21;12.98;;;10.30;;
16029;SDS011;34770;49.272;11.070;2022-07-23T01:39:47;15.48;;;10.10;;
16029;SDS011;34770;49.272;11.070;2022-07-23T01:42:12;10.77;;;9.77;;
16029;SDS011;34770;49.272;11.070;2022-07-23T01:44:38;12.23;;;10.35;;
16029;SDS011;34770;49.272;11.070;2022-07-23T01:47:03;10.70;;;9.57;;
16029;SDS011;34770;49.272;11.070;2022-07-23T01:49:28;14.27;;;9.80;;
16029;SDS011;34770;49.272;11.070;2022-07-23T01:51:54;10.55;;;8.88;;
16029;SDS011;34770;49.272;11.070;2022-07-23T01:54:34;12.27;;;8.90;;
16029;SDS011;34770;49.272;11.070;2022-07-23T01:56:59;10.15;;;9.10;;
16029;SDS011;34770;49.272;11.070;2022-07-23T01:59:25;10.68;;;9.68;;
16029;SDS011;34770;49.272;11.070;2022-07-23T02:01:52;10.38;;;9.38;;
16029;SDS011;34770;49.272;11.070;2022-07-23T02:04:18;10.52;;;9.45;;
16029;SDS011;34770;49.272;11.070;2022-07-23T02:06:44;14.02;;;9.75;;
16029;SDS011;34770;49.272;11.070;2022-07-23T02:09:09;10.35;;;9.18;;
16029;SDS011;34770;49.272;11.070;2022-07-23T02:11:35;12.23;;;9.63;;
16029;SDS011;34770;49.272;11.070;2022-07-23T02:14:00;10.52;;;9.52;;
16029;SDS011;34770;49.272;11.070;2022-07-23T02:16:26;11.77;;;9.77;;
16029;SDS011;34770;49.272;11.070;2022-07-23T02:18:51;11.10;;;9.50;;
16029;SDS011;34770;49.272;11.070;2022-07-23T02:21:16;13.02;;;10.25;;
16029;SDS011;34770;49.272;11.070;2022-07-23T02:23:42;16.85;;;9.63;;
16029;SDS011;34770;49.272;11.070;2022-07-23T02:26:07;11.35;;;9.65;;
16029;SDS011;34770;49.272;11.070;2022-07-23T02:28:32;11.18;;;9.25;;
16029;SDS011;34770;49.272;11.070;2022-07-23T02:30:58;11.15;;;9.90;;
16029;SDS011;34770;49.272;11.070;2022-07-23T02:33:23;10.70;;;9.52;;
16029;SDS011;34770;49.272;11.070;2022-07-23T02:35:49;10.07;;;9.02;;
16029;SDS011;34770;49.272;11.070;2022-07-23T02:38:14;11.18;;;8.95;;
16029;SDS011;34770;49.272;11.070;2022-07-23T02:40:40;9.90;;;8.90;;
16029;SDS011;34770;49.272;11.070;2022-07-23T02:43:05;13.23;;;9.57;;
16029;SDS011;34770;49.272;11.070;2022-07-23T02:45:30;11.95;;;9.98;;
16029;SDS011;34770;49.272;11.070;2022-07-23T02:47:56;10.52;;;9.48;;
16029;SDS011;34770;49.272;11.070;2022-07-23T02:50:21;10.95;;;9.48;;
16029;SDS011;34770;49.272;11.070;2022-07-23T02:52:46;10.73;;;9.63;;
16029;SDS011;34770;49.272;11.070;2022-07-23T02:55:12;10.65;;;9.63;;
16029;SDS011;34770;49.272;11.070;2022-07-23T02:57:38;11.05;;;9.73;;
16029;SDS011;34770;49.272;11.070;2022-07-23T03:00:03;11.05;;;9.15;;
16029;SDS011;34770;49.272;11.070;2022-07-23T03:02:30;10.52;;;9.45;;
16029;SDS011;34770;49.272;11.070;2022-07-23T03:04:56;10.63;;;9.57;;
16029;SDS011;34770;49.272;11.070;2022-07-23T03:07:21;11.60;;;9.00;;
16029;SDS011;34770;49.272;11.070;2022-07-23T03:09:46;12.07;;;9.70;;
16029;SDS011;34770;49.272;11.070;2022-07-23T03:12:12;10.35;;;9.35;;
16029;SDS011;34770;49.272;11.070;2022-07-23T03:14:38;11.27;;;10.07;;
16029;SDS011;34770;49.272;11.070;2022-07-23T03:17:03;13.77;;;10.68;;
16029;SDS011;34770;49.272;11.070;2022-07-23T03:19:28;13.30;;;9.98;;
16029;SDS011;34770;49.272;11.070;2022-07-23T03:21:54;10.30;;;9.23;;
16029;SDS011;34770;49.272;11.070;2022-07-23T03:24:19;13.57;;;9.48;;
16029;SDS011;34770;49.272;11.070;2022-07-23T03:26:45;10.23;;;9.23;;
16029;SDS011;34770;49.272;11.070;2022-07-23T03:29:10;10.85;;;8.75;;
16029;SDS011;34770;49.272;11.070;2022-07-23T03:31:36;10.63;;;9.48;;
16029;SDS011;34770;49.272;11.070;2022-07-23T03:34:01;11.45;;;10.25;;
16029;SDS011;34770;49.272;11.070;2022-07-23T03:36:27;11.48;;;10.30;;
16029;SDS011;34770;49.272;11.070;2022-07-23T03:38:53;11.57;;;9.98;;
16029;SDS011;34770;49.272;11.070;2022-07-23T03:41:19;10.98;;;9.52;;
16029;SDS011;34770;49.272;11.070;2022-07-23T03:43:45;15.77;;;9.55;;
16029;SDS011;34770;49.272;11.070;2022-07-23T03:46:11;11.27;;;9.80;;
16029;SDS011;34770;49.272;11.070;2022-07-23T03:48:36;12.18;;;10.13;;
16029;SDS011;34770;49.272;11.070;2022-07-23T03:51:02;12.07;;;9.65;;
16029;SDS011;34770;49.272;11.070;2022-07-23T03:53:28;11.35;;;8.90;;
16029;SDS011;34770;49.272;11.070;2022-07-23T03:55:54;12.65;;;10.07;;
16029;SDS011;34770;49.272;11.070;2022-07-23T03:58:19;11.05;;;9.95;;
16029;SDS011;34770;49.272;11.070;2022-07-23T04:00:44;12.45;;;10.57;;
16029;SDS011;34770;49.272;11.070;2022-07-23T04:03:10;13.48;;;10.13;;
16029;SDS011;34770;49.272;11.070;2022-07-23T04:05:35;10.15;;;9.15;;
16029;SDS011;34770;49.272;11.070;2022-07-23T04:08:01;10.43;;;9.32;;
16029;SDS011;34770;49.272;11.070;2022-07-23T04:10:26;9.30;;;8.18;;
16029;SDS011;34770;49.272;11.070;2022-07-23T04:12:51;9.32;;;8.43;;
16029;SDS011;34770;49.272;11.070;2022-07-23T04:15:17;10.38;;;7.85;;
16029;SDS011;34770;49.272;11.070;2022-07-23T04:17:42;7.82;;;7.13;;
16029;SDS011;34770;49.272;11.070;2022-07-23T04:20:09;7.47;;;6.55;;
16029;SDS011;34770;49.272;11.070;2022-07-23T04:22:35;6.32;;;5.72;;
16029;SDS011;34770;49.272;11.070;2022-07-23T04:25:01;5.90;;;5.10;;
16029;SDS011;34770;49.272;11.070;2022-07-23T04:27:26;6.53;;;5.40;;
16029;SDS011;34770;49.272;11.070;2022-07-23T04:29:51;6.10;;;4.72;;
16029;SDS011;34770;49.272;11.070;2022-07-23T04:32:17;5.60;;;4.95;;
16029;SDS011;34770;49.272;11.070;2022-07-23T04:34:42;6.93;;;6.07;;
16029;SDS011;34770;49.272;11.070;2022-07-23T04:37:07;9.43;;;5.38;;
16029;SDS011;34770;49.272;11.070;2022-07-23T04:39:33;4.65;;;4.25;;
16029;SDS011;34770;49.272;11.070;2022-07-23T04:41:58;5.32;;;4.82;;
16029;SDS011;34770;49.272;11.070;2022-07-23T04:44:24;6.38;;;4.72;;
16029;SDS011;34770;49.272;11.070;2022-07-23T04:46:49;5.28;;;4.78;;
16029;SDS011;34770;49.272;11.070;2022-07-23T04:49:14;4.97;;;4.57;;
16029;SDS011;34770;49.272;11.070;2022-07-23T04:51:40;4.57;;;4.18;;
16029;SDS011;34770;49.272;11.070;2022-07-23T04:54:05;4.68;;;4.28;;
16029;SDS011;34770;49.272;11.070;2022-07-23T04:56:31;7.40;;;4.90;;
16029;SDS011;34770;49.272;11.070;2022-07-23T04:58:56;7.28;;;4.32;;
16029;SDS011;34770;49.272;11.070;2022-07-23T05:01:21;7.05;;;5.40;;
16029;SDS011;34770;49.272;11.070;2022-07-23T05:03:47;5.68;;;4.93;;
16029;SDS011;34770;49.272;11.070;2022-07-23T05:06:13;6.82;;;5.35;;
16029;SDS011;34770;49.272;11.070;2022-07-23T05:08:39;5.82;;;5.22;;
16029;SDS011;34770;49.272;11.070;2022-07-23T05:11:04;6.22;;;4.68;;
16029;SDS011;34770;49.272;11.070;2022-07-23T05:13:30;6.78;;;5.20;;
16029;SDS011;34770;49.272;11.070;2022-07-23T05:15:55;6.18;;;4.88;;
16029;SDS011;34770;49.272;11.070;2022-07-23T05:18:21;5.45;;;4.60;;
16029;SDS011;34770;49.272;11.070;2022-07-23T05:20:46;5.75;;;5.25;;
16029;SDS011;34770;49.272;11.070;2022-07-23T05:23:12;7.30;;;5.63;;
16029;SDS011;34770;49.272;11.070;2022-07-23T05:25:37;6.35;;;4.97;;
16029;SDS011;34770;49.272;11.070;2022-07-23T05:28:03;4.68;;;4.28;;
16029;SDS011;34770;49.272;11.070;2022-07-23T05:30:28;5.63;;;5.10;;
16029;SDS011;34770;49.272;11.070;2022-07-23T05:32:54;6.78;;;4.63;;
16029;SDS011;34770;49.272;11.070;2022-07-23T05:35:19;5.10;;;4.60;;
16029;SDS011;34770;49.272;11.070;2022-07-23T05:37:45;5.10;;;4.60;;
16029;SDS011;34770;49.272;11.070;2022-07-23T05:40:10;5.05;;;4.55;;
16029;SDS011;34770;49.272;11.070;2022-07-23T05:42:36;4.50;;;4.10;;
16029;SDS011;34770;49.272;11.070;2022-07-23T05:45:03;5.43;;;4.78;;
16029;SDS011;34770;49.272;11.070;2022-07-23T05:47:29;7.18;;;5.05;;
16029;SDS011;34770;49.272;11.070;2022-07-23T05:50:06;5.40;;;4.90;;
16029;SDS011;34770;49.272;11.070;2022-07-23T05:52:32;4.93;;;4.10;;
16029;SDS011;34770;49.272;11.070;2022-07-23T05:54:57;5.93;;;4.80;;
16029;SDS011;34770;49.272;11.070;2022-07-23T05:57:22;5.75;;;4.30;;
16029;SDS011;34770;49.272;11.070;2022-07-23T05:59:48;4.45;;;4.05;;
16029;SDS011;34770;49.272;11.070;2022-07-23T06:02:13;4.30;;;4.00;;
16029;SDS011;34770;49.272;11.070;2022-07-23T06:04:38;5.93;;;4.25;;
16029;SDS011;34770;49.272;11.070;2022-07-23T06:07:04;5.97;;;4.03;;
16029;SDS011;34770;49.272;11.070;2022-07-23T06:09:29;4.97;;;4.47;;
16029;SDS011;34770;49.272;11.070;2022-07-23T06:11:55;4.43;;;4.03;;
16029;SDS011;34770;49.272;11.070;2022-07-23T06:14:20;5.10;;;4.43;;
16029;SDS011;34770;49.272;11.070;2022-07-23T06:16:45;4.70;;;4.30;;
16029;SDS011;34770;49.272;11.070;2022-07-23T06:19:11;6.45;;;4.72;;
16029;SDS011;34770;49.272;11.070;2022-07-23T06:21:36;6.90;;;4.38;;
16029;SDS011;34770;49.272;11.070;2022-07-23T06:24:02;7.15;;;4.70;;
16029;SDS011;34770;49.272;11.070;2022-07-23T06:26:27;4.80;;;4.35;;
16029;SDS011;34770;49.272;11.070;2022-07-23T06:28:52;5.68;;;5.00;;
16029;SDS011;34770;49.272;11.070;2022-07-23T06:31:18;7.93;;;5.00;;
16029;SDS011;34770;49.272;11.070;2022-07-23T06:33:43;4.72;;;4.25;;
16029;SDS011;34770;49.272;11.070;2022-07-23T06:36:09;5.00;;;4.60;;
16029;SDS011;34770;49.272;11.070;2022-07-23T06:38:34;5.68;;;4.80;;
16029;SDS011;34770;49.272;11.070;2022-07-23T06:41:00;5.40;;;4.90;;
16029;SDS011;34770;49.272;11.070;2022-07-23T06:43:25;4.88;;;4.47;;
16029;SDS011;34770;49.272;11.070;2022-07-23T06:45:50;6.35;;;4.38;;
16029;SDS011;34770;49.272;11.070;2022-07-23T06:48:16;5.88;;;4.90;;
16029;SDS011;34770;49.272;11.070;2022-07-23T06:50:41;4.57;;;4.18;;
16029;SDS011;34770;49.272;11.070;2022-07-23T06:53:06;5.10;;;4.60;;
16029;SDS011;34770;49.272;11.070;2022-07-23T06:55:32;5.25;;;4.40;;
16029;SDS011;34770;49.272;11.070;2022-07-23T06:57:57;5.13;;;4.60;;
16029;SDS011;34770;49.272;11.070;2022-07-23T07:00:23;6.50;;;4.75;;
16029;SDS011;34770;49.272;11.070;2022-07-23T07:02:52;5.90;;;5.40;;
16029;SDS011;34770;49.272;11.070;2022-07-23T07:05:18;5.28;;;4.78;;
16029;SDS011;34770;49.272;11.070;2022-07-23T07:07:44;4.65;;;4.20;;
16029;SDS011;34770;49.272;11.070;2022-07-23T07:10:09;4.95;;;4.35;;
16029;SDS011;34770;49.272;11.070;2022-07-23T07:12:35;4.88;;;4.47;;
16029;SDS011;34770;49.272;11.070;2022-07-23T07:15:00;4.30;;;3.90;;
16029;SDS011;34770;49.272;11.070;2022-07-23T07:17:26;8.27;;;4.53;;
16029;SDS011;34770;49.272;11.070;2022-07-23T07:19:51;7.00;;;4.70;;
16029;SDS011;34770;49.272;11.070;2022-07-23T07:22:16;5.20;;;4.70;;
16029;SDS011;34770;49.272;11.070;2022-07-23T07:24:42;6.28;;;4.85;;
16029;SDS011;34770;49.272;11.070;2022-07-23T07:27:07;5.45;;;4.65;;
16029;SDS011;34770;49.272;11.070;2022-07-23T07:29:32;5.00;;;4.22;;
16029;SDS011;34770;49.272;11.070;2022-07-23T07:31:58;5.28;;;4.78;;
16029;SDS011;34770;49.272;11.070;2022-07-23T07:34:23;4.53;;;4.07;;
16029;SDS011;34770;49.272;11.070;2022-07-23T07:36:49;5.45;;;4.65;;
16029;SDS011;34770;49.272;11.070;2022-07-23T07:39:15;7.38;;;5.50;;
16029;SDS011;34770;49.272;11.070;2022-07-23T07:41:40;5.78;;;5.10;;
16029;SDS011;34770;49.272;11.070;2022-07-23T07:44:05;8.25;;;5.05;;
16029;SDS011;34770;49.272;11.070;2022-07-23T07:46:31;7.38;;;5.20;;
16029;SDS011;34770;49.272;11.070;2022-07-23T07:48:56;7.47;;;4.85;;
16029;SDS011;34770;49.272;11.070;2022-07-23T07:51:22;5.47;;;4.90;;
16029;SDS011;34770;49.272;11.070;2022-07-23T07:53:47;7.32;;;5.07;;
16029;SDS011;34770;49.272;11.070;2022-07-23T07:56:12;5.18;;;4.68;;
16029;SDS011;34770;49.272;11.070;2022-07-23T07:58:38;6.03;;;4.45;;
16029;SDS011;34770;49.272;11.070;2022-07-23T08:01:03;6.13;;;3.72;;
16029;SDS011;34770;49.272;11.070;2022-07-23T08:03:29;5.68;;;5.05;;
16029;SDS011;34770;49.272;11.070;2022-07-23T08:05:54;6.30;;;5.45;;
16029;SDS011;34770;49.272;11.070;2022-07-23T08:08:20;9.40;;;5.38;;
16029;SDS011;34770;49.272;11.070;2022-07-23T08:10:46;7.28;;;5.03;;
16029;SDS011;34770;49.272;11.070;2022-07-23T08:13:12;6.15;;;5.10;;
16029;SDS011;34770;49.272;11.070;2022-07-23T08:15:39;6.10;;;5.07;;
16029;SDS011;34770;49.272;11.070;2022-07-23T08:18:05;5.47;;;4.63;;
16029;SDS011;34770;49.272;11.070;2022-07-23T08:20:30;5.40;;;4.88;;
16029;SDS011;34770;49.272;11.070;2022-07-23T08:22:56;5.15;;;4.65;;
16029;SDS011;34770;49.272;11.070;2022-07-23T08:25:28;4.75;;;4.18;;
16029;SDS011;34770;49.272;11.070;2022-07-23T08:28:00;6.38;;;5.30;;
16029;SDS011;34770;49.272;11.070;2022-07-23T08:30:27;5.57;;;4.97;;
16029;SDS011;34770;49.272;11.070;2022-07-23T08:35:29;5.10;;;4.63;;
16029;SDS011;34770;49.272;11.070;2022-07-23T08:37:55;5.13;;;4.03;;
16029;SDS011;34770;49.272;11.070;2022-07-23T08:40:22;5.78;;;4.78;;
16029;SDS011;34770;49.272;11.070;2022-07-23T08:42:48;5.10;;;4.60;;
16029;SDS011;34770;49.272;11.070;2022-07-23T08:45:18;5.45;;;4.95;;
16029;SDS011;34770;49.272;11.070;2022-07-23T08:47:53;6.65;;;5.15;;
16029;SDS011;34770;49.272;11.070;2022-07-23T08:50:24;13.95;;;5.38;;
16029;SDS011;34770;49.272;11.070;2022-07-23T08:52:50;6.15;;;4.57;;
16029;SDS011;34770;49.272;11.070;2022-07-23T08:55:17;5.65;;;5.15;;
16029;SDS011;34770;49.272;11.070;2022-07-23T08:57:43;6.63;;;5.43;;
16029;SDS011;34770;49.272;11.070;2022-07-23T09:00:09;7.53;;;5.47;;
16029;SDS011;34770;49.272;11.070;2022-07-23T09:02:39;9.45;;;4.55;;
16029;SDS011;34770;49.272;11.070;2022-07-23T09:05:09;7.18;;;5.13;;
16029;SDS011;34770;49.272;11.070;2022-07-23T09:07:36;6.70;;;5.43;;
16029;SDS011;34770;49.272;11.070;2022-07-23T09:10:09;5.55;;;5.03;;
16029;SDS011;34770;49.272;11.070;2022-07-23T09:12:36;7.03;;;5.57;;
16029;SDS011;34770;49.272;11.070;2022-07-23T09:15:04;4.95;;;4.45;;
16029;SDS011;34770;49.272;11.070;2022-07-23T09:17:36;8.25;;;4.90;;
16029;SDS011;34770;49.272;11.070;2022-07-23T09:20:07;6.78;;;5.25;;
16029;SDS011;34770;49.272;11.070;2022-07-23T09:22:34;6.57;;;5.20;;
16029;SDS011;34770;49.272;11.070;2022-07-23T09:25:07;4.78;;;4.38;;
16029;SDS011;34770;49.272;11.070;2022-07-23T09:30:19;7.25;;;4.50;;
16029;SDS011;34770;49.272;11.070;2022-07-23T09:35:51;4.53;;;4.13;;
16029;SDS011;34770;49.272;11.070;2022-07-23T09:38:20;4.70;;;4.30;;
16029;SDS011;34770;49.272;11.070;2022-07-23T09:40:47;4.78;;;4.30;;
16029;SDS011;34770;49.272;11.070;2022-07-23T09:43:33;4.72;;;4.30;;
16029;SDS011;34770;49.272;11.070;2022-07-23T09:48:45;4.68;;;4.18;;
16029;SDS011;34770;49.272;11.070;2022-07-23T09:51:11;4.75;;;4.30;;
16029;SDS011;34770;49.272;11.070;2022-07-23T09:53:38;5.50;;;4.85;;
16029;SDS011;34770;49.272;11.070;2022-07-23T09:56:04;4.75;;;4.18;;
16029;SDS011;34770;49.272;11.070;2022-07-23T09:58:30;4.80;;;4.25;;
16029;SDS011;34770;49.272;11.070;2022-07-23T10:00:56;5.55;;;4.32;;
16029;SDS011;34770;49.272;11.070;2022-07-23T10:03:23;5.22;;;4.72;;
16029;SDS011;34770;49.272;11.070;2022-07-23T10:05:49;5.15;;;4.65;;
16029;SDS011;34770;49.272;11.070;2022-07-23T10:08:17;4.65;;;4.25;;
16029;SDS011;34770;49.272;11.070;2022-07-23T10:10:45;5.95;;;4.32;;
16029;SDS011;34770;49.272;11.070;2022-07-23T10:13:11;5.22;;;4.78;;
16029;SDS011;34770;49.272;11.070;2022-07-23T10:15:50;4.90;;;4.10;;
16029;SDS011;34770;49.272;11.070;2022-07-23T10:18:16;5.78;;;4.35;;
16029;SDS011;34770;49.272;11.070;2022-07-23T10:20:42;5.25;;;4.50;;
16029;SDS011;34770;49.272;11.070;2022-07-23T10:23:17;5.25;;;4.40;;
16029;SDS011;34770;49.272;11.070;2022-07-23T10:26:34;5.78;;;4.55;;
16029;SDS011;34770;49.272;11.070;2022-07-23T10:36:44;5.25;;;4.75;;
16029;SDS011;34770;49.272;11.070;2022-07-23T10:39:22;4.55;;;4.15;;
16029;SDS011;34770;49.272;11.070;2022-07-23T10:41:51;7.82;;;5.18;;
16029;SDS011;34770;49.272;11.070;2022-07-23T10:44:21;8.13;;;4.47;;
16029;SDS011;34770;49.272;11.070;2022-07-23T10:49:41;6.43;;;5.10;;
16029;SDS011;34770;49.272;11.070;2022-07-23T10:54:42;5.90;;;5.40;;
16029;SDS011;34770;49.272;11.070;2022-07-23T10:57:08;5.50;;;5.00;;
16029;SDS011;34770;49.272;11.070;2022-07-23T11:02:34;7.05;;;5.20;;
16029;SDS011;34770;49.272;11.070;2022-07-23T11:05:10;6.55;;;4.63;;
16029;SDS011;34770;49.272;11.070;2022-07-23T11:08:09;6.13;;;5.28;;
16029;SDS011;34770;49.272;11.070;2022-07-23T11:10:32;6.85;;;5.35;;
16029;SDS011;34770;49.272;11.070;2022-07-23T11:13:25;8.68;;;5.05;;
16029;SDS011;34770;49.272;11.070;2022-07-23T11:37:03;6.55;;;4.95;;
16029;SDS011;34770;49.272;11.070;2022-07-23T11:39:30;7.25;;;5.30;;
16029;SDS011;34770;49.272;11.070;2022-07-23T11:41:56;5.95;;;4.60;;
16029;SDS011;34770;49.272;11.070;2022-07-23T11:47:21;6.25;;;5.70;;
16029;SDS011;34770;49.272;11.070;2022-07-23T11:49:58;5.97;;;4.90;;
16029;SDS011;34770;49.272;11.070;2022-07-23T11:52:26;6.90;;;4.43;;
16029;SDS011;34770;49.272;11.070;2022-07-23T11:57:26;5.03;;;4.15;;
16029;SDS011;34770;49.272;11.070;2022-07-23T11:59:57;4.80;;;4.28;;
16029;SDS011;34770;49.272;11.070;2022-07-23T12:02:44;4.95;;;4.45;;
16029;SDS011;34770;49.272;11.070;2022-07-23T12:05:13;5.40;;;4.78;;
16029;SDS011;34770;49.272;11.070;2022-07-23T12:07:41;4.68;;;3.88;;
16029;SDS011;34770;49.272;11.070;2022-07-23T12:13:05;4.10;;;3.60;;
16029;SDS011;34770;49.272;11.070;2022-07-23T12:15:37;4.20;;;3.80;;
16029;SDS011;34770;49.272;11.070;2022-07-23T12:18:04;3.65;;;3.35;;
16029;SDS011;34770;49.272;11.070;2022-07-23T12:20:32;3.60;;;3.30;;
16029;SDS011;34770;49.272;11.070;2022-07-23T12:23:01;4.60;;;3.42;;
16029;SDS011;34770;49.272;11.070;2022-07-23T12:25:29;4.07;;;3.30;;
16029;SDS011;34770;49.272;11.070;2022-07-23T12:28:19;3.50;;;3.20;;
16029;SDS011;34770;49.272;11.070;2022-07-23T12:30:45;4.00;;;3.70;;
16029;SDS011;34770;49.272;11.070;2022-07-23T12:33:12;3.53;;;3.22;;
16029;SDS011;34770;49.272;11.070;2022-07-23T12:35:41;4.47;;;3.20;;
16029;SDS011;34770;49.272;11.070;2022-07-23T12:38:12;3.45;;;3.15;;
16029;SDS011;34770;49.272;11.070;2022-07-23T12:40:49;3.90;;;3.50;;
16029;SDS011;34770;49.272;11.070;2022-07-23T12:43:26;4.72;;;3.35;;
16029;SDS011;34770;49.272;11.070;2022-07-23T12:48:32;3.40;;;3.10;;
16029;SDS011;34770;49.272;11.070;2022-07-23T12:53:47;4.68;;;3.35;;
16029;SDS011;34770;49.272;11.070;2022-07-23T12:56:19;4.93;;;3.92;;
16029;SDS011;34770;49.272;11.070;2022-07-23T12:59:08;4.05;;;3.65;;
16029;SDS011;34770;49.272;11.070;2022-07-23T13:01:37;3.65;;;3.35;;
16029;SDS011;34770;49.272;11.070;2022-07-23T13:06:35;4.25;;;3.85;;
16029;SDS011;34770;49.272;11.070;2022-07-23T13:09:02;4.50;;;4.10;;
16029;SDS011;34770;49.272;11.070;2022-07-23T13:11:29;3.47;;;3.17;;
16029;SDS011;34770;49.272;11.070;2022-07-23T13:13:54;4.25;;;3.85;;
16029;SDS011;34770;49.272;11.070;2022-07-23T13:16:20;3.72;;;3.42;;
16029;SDS011;34770;49.272;11.070;2022-07-23T13:18:45;3.63;;;3.33;;
16029;SDS011;34770;49.272;11.070;2022-07-23T13:21:11;4.63;;;3.83;;
16029;SDS011;34770;49.272;11.070;2022-07-23T13:23:36;4.45;;;3.92;;
16029;SDS011;34770;49.272;11.070;2022-07-23T13:26:02;4.20;;;3.40;;
16029;SDS011;34770;49.272;11.070;2022-07-23T13:28:28;4.60;;;3.50;;
16029;SDS011;34770;49.272;11.070;2022-07-23T13:30:53;4.15;;;3.75;;
16029;SDS011;34770;49.272;11.070;2022-07-23T13:33:20;5.50;;;3.97;;
16029;SDS011;34770;49.272;11.070;2022-07-23T13:35:47;3.85;;;3.55;;
16029;SDS011;34770;49.272;11.070;2022-07-23T13:38:13;4.07;;;3.33;;
16029;SDS011;34770;49.272;11.070;2022-07-23T13:40:45;4.30;;;3.90;;
16029;SDS011;34770;49.272;11.070;2022-07-23T13:43:13;4.85;;;3.85;;
16029;SDS011;34770;49.272;11.070;2022-07-23T13:45:40;6.25;;;3.58;;
16029;SDS011;34770;49.272;11.070;2022-07-23T13:48:09;4.50;;;3.53;;
16029;SDS011;34770;49.272;11.070;2022-07-23T13:50:36;4.22;;;3.67;;
16029;SDS011;34770;49.272;11.070;2022-07-23T13:53:06;4.15;;;3.75;;
16029;SDS011;34770;49.272;11.070;2022-07-23T13:55:33;4.03;;;3.35;;
16029;SDS011;34770;49.272;11.070;2022-07-23T13:57:58;4.22;;;3.80;;
16029;SDS011;34770;49.272;11.070;2022-07-23T14:00:24;4.80;;;4.28;;
16029;SDS011;34770;49.272;11.070;2022-07-23T14:02:51;4.63;;;4.05;;
16029;SDS011;34770;49.272;11.070;2022-07-23T14:05:16;4.75;;;4.03;;
16029;SDS011;34770;49.272;11.070;2022-07-23T14:07:42;5.07;;;4.15;;
16029;SDS011;34770;49.272;11.070;2022-07-23T14:10:09;4.18;;;3.78;;
16029;SDS011;34770;49.272;11.070;2022-07-23T14:12:35;5.22;;;4.50;;
16029;SDS011;34770;49.272;11.070;2022-07-23T14:15:01;4.25;;;3.95;;
16029;SDS011;34770;49.272;11.070;2022-07-23T14:17:26;4.40;;;4.00;;
16029;SDS011;34770;49.272;11.070;2022-07-23T14:19:52;4.78;;;4.28;;
16029;SDS011;34770;49.272;11.070;2022-07-23T14:22:17;4.70;;;4.20;;
16029;SDS011;34770;49.272;11.070;2022-07-23T14:24:43;5.35;;;3.95;;
16029;SDS011;34770;49.272;11.070;2022-07-23T14:27:08;5.32;;;4.82;;
16029;SDS011;34770;49.272;11.070;2022-07-23T14:29:34;5.18;;;4.60;;
16029;SDS011;34770;49.272;11.070;2022-07-23T14:31:59;5.60;;;5.05;;
16029;SDS011;34770;49.272;11.070;2022-07-23T14:34:25;4.22;;;3.80;;
16029;SDS011;34770;49.272;11.070;2022-07-23T14:36:51;4.93;;;4.35;;
16029;SDS011;34770;49.272;11.070;2022-07-23T14:39:17;5.57;;;4.68;;
16029;SDS011;34770;49.272;11.070;2022-07-23T14:41:43;5.65;;;4.72;;
16029;SDS011;34770;49.272;11.070;2022-07-23T14:44:08;6.32;;;4.63;;
16029;SDS011;34770;49.272;11.070;2022-07-23T14:46:34;5.28;;;4.55;;
16029;SDS011;34770;49.272;11.070;2022-07-23T14:48:59;5.43;;;4.88;;
16029;SDS011;34770;49.272;11.070;2022-07-23T14:51:25;5.43;;;4.93;;
16029;SDS011;34770;49.272;11.070;2022-07-23T14:53:50;4.78;;;4.38;;
16029;SDS011;34770;49.272;11.070;2022-07-23T14:56:16;5.07;;;4.57;;
16029;SDS011;34770;49.272;11.070;2022-07-23T14:58:42;5.72;;;5.10;;
16029;SDS011;34770;49.272;11.070;2022-07-23T15:01:07;5.43;;;4.93;;
16029;SDS011;34770;49.272;11.070;2022-07-23T15:03:33;6.03;;;5.43;;
16029;SDS011;34770;49.272;11.070;2022-07-23T15:05:59;6.30;;;5.38;;
16029;SDS011;34770;49.272;11.070;2022-07-23T15:08:25;8.55;;;5.53;;
16029;SDS011;34770;49.272;11.070;2022-07-23T15:10:50;6.03;;;5.43;;
16029;SDS011;34770;49.272;11.070;2022-07-23T15:13:16;6.60;;;5.35;;
16029;SDS011;34770;49.272;11.070;2022-07-23T15:15:42;5.88;;;5.38;;
16029;SDS011;34770;49.272;11.070;2022-07-23T15:18:08;5.97;;;5.38;;
16029;SDS011;34770;49.272;11.070;2022-07-23T15:20:34;5.60;;;5.07;;
16029;SDS011;34770;49.272;11.070;2022-07-23T15:22:59;7.53;;;5.45;;
16029;SDS011;34770;49.272;11.070;2022-07-23T15:25:24;7.38;;;5.78;;
16029;SDS011;34770;49.272;11.070;2022-07-23T15:27:50;7.00;;;5.68;;
16029;SDS011;34770;49.272;11.070;2022-07-23T15:30:15;5.75;;;5.15;;
16029;SDS011;34770;49.272;11.070;2022-07-23T15:32:41;5.97;;;5.40;;